createdAt,value
2023-08-27T00:00:00.616Z,9.1
2023-08-27T00:01:00.661Z,9.1
2023-08-27T00:02:00.587Z,7.9
2023-08-27T00:03:00.818Z,7.9
2023-08-27T00:04:00.557Z,7.9
2023-08-27T00:05:00.501Z,7.9
2023-08-27T00:06:00.510Z,7.9
2023-08-27T00:07:00.504Z,9.7
2023-08-27T00:08:00.541Z,9.7
2023-08-27T00:09:00.492Z,9.7
2023-08-27T00:10:00.825Z,9.7
2023-08-27T00:11:01.041Z,9.7
2023-08-27T00:12:00.555Z,8.9
2023-08-27T00:13:00.712Z,8.9
2023-08-27T00:14:00.517Z,8.9
2023-08-27T00:15:00.661Z,8.9
2023-08-27T00:16:00.595Z,8.9
2023-08-27T00:17:00.492Z,9.7
2023-08-27T00:18:00.566Z,9.7
2023-08-27T00:19:00.505Z,9.7
2023-08-27T00:20:00.893Z,9.7
2023-08-27T00:21:00.487Z,9.7
2023-08-27T00:22:00.466Z,8.9
2023-08-27T00:23:00.749Z,8.9
2023-08-27T00:24:00.552Z,8.9
2023-08-27T00:25:00.504Z,8.9
2023-08-27T00:26:00.526Z,8.9
2023-08-27T00:27:00.492Z,9.2
2023-08-27T00:28:00.493Z,9.2
2023-08-27T00:29:00.494Z,9.2
2023-08-27T00:30:01.075Z,9.2
2023-08-27T00:31:01.044Z,9.2
2023-08-27T00:32:03.799Z,9.3
2023-08-27T00:33:00.743Z,9.3
2023-08-27T00:34:00.474Z,9.3
2023-08-27T00:35:01.180Z,9.3
2023-08-27T00:36:00.517Z,9.3
2023-08-27T00:37:01.469Z,10.2
2023-08-27T00:38:00.496Z,10.2
2023-08-27T00:39:00.476Z,10.2
2023-08-27T00:40:00.486Z,10.2
2023-08-27T00:41:00.568Z,10.2
2023-08-27T00:42:00.485Z,10.9
2023-08-27T00:43:00.796Z,10.9
2023-08-27T00:44:00.478Z,10.9
2023-08-27T00:45:00.677Z,10.9
2023-08-27T00:46:00.578Z,10.9
2023-08-27T00:47:00.789Z,10.8
2023-08-27T00:48:00.610Z,10.8
2023-08-27T00:49:00.546Z,10.8
2023-08-27T00:50:00.582Z,10.8
2023-08-27T00:51:01.688Z,10.8
2023-08-27T00:52:01.390Z,11.1
2023-08-27T00:53:00.940Z,11.1
2023-08-27T00:54:00.550Z,11.1
2023-08-27T00:55:00.615Z,11.1
2023-08-27T00:56:00.623Z,11.1
2023-08-27T00:57:02.196Z,11.4
2023-08-27T00:58:00.574Z,11.4
2023-08-27T00:59:01.206Z,11.4
2023-08-27T01:00:00.614Z,11.4
2023-08-27T01:01:00.601Z,11.4
2023-08-27T01:02:00.526Z,11.5
2023-08-27T01:03:00.704Z,11.5
2023-08-27T01:04:00.513Z,11.5
2023-08-27T01:05:00.506Z,11.5
2023-08-27T01:06:00.582Z,11.5
2023-08-27T01:07:07.224Z,12.3
2023-08-27T01:08:11.590Z,12.3
2023-08-27T01:09:07.300Z,12.3
2023-08-27T01:10:31.284Z,12.3
2023-08-27T01:11:13.888Z,12.3
2023-08-27T01:12:23.266Z,12.5
2023-08-27T01:13:03.492Z,12.5
2023-08-27T01:14:03.573Z,12.5
2023-08-27T01:15:02.998Z,12.5
2023-08-27T01:16:02.321Z,12.5
2023-08-27T01:17:02.839Z,13.6
2023-08-27T01:18:02.911Z,13.6
2023-08-27T01:19:01.394Z,13.6
2023-08-27T01:20:00.689Z,13.6
2023-08-27T01:21:14.533Z,13.6
2023-08-27T01:22:00.480Z,13.9
2023-08-27T01:23:00.946Z,13.9
2023-08-27T01:24:00.477Z,13.9
2023-08-27T01:25:00.503Z,13.9
2023-08-27T01:26:01.298Z,13.9
2023-08-27T01:27:06.990Z,14.6
2023-08-27T01:28:03.970Z,14.6
2023-08-27T01:29:09.039Z,14.6
2023-08-27T01:30:11.173Z,14.6
2023-08-27T01:31:10.027Z,14.6
2023-08-27T01:32:05.960Z,15.3
2023-08-27T01:33:12.501Z,15.3
2023-08-27T01:34:02.943Z,15.3
2023-08-27T01:35:02.410Z,15.3
2023-08-27T01:36:00.982Z,15.3
2023-08-27T01:37:01.272Z,15.4
2023-08-27T01:38:00.733Z,15.4
2023-08-27T01:39:00.495Z,15.4
2023-08-27T01:40:01.755Z,15.4
2023-08-27T01:41:00.485Z,15.4
2023-08-27T01:42:00.482Z,15.6
2023-08-27T01:43:00.816Z,15.6
2023-08-27T01:44:00.498Z,15.6
2023-08-27T01:45:00.960Z,15.6
2023-08-27T01:46:00.482Z,15.6
2023-08-27T01:47:00.557Z,16.1
2023-08-27T01:48:00.533Z,16.1
2023-08-27T01:49:00.524Z,16.1
2023-08-27T01:50:00.501Z,16.1
2023-08-27T01:51:00.532Z,16.1
2023-08-27T01:52:00.478Z,15.1
2023-08-27T01:53:00.827Z,15.1
2023-08-27T01:54:00.621Z,15.1
2023-08-27T01:55:00.508Z,15.1
2023-08-27T01:56:00.478Z,15.1
2023-08-27T01:57:00.530Z,14.7
2023-08-27T01:58:00.482Z,14.7
2023-08-27T01:59:00.491Z,14.7
2023-08-27T02:00:00.703Z,14.7
2023-08-27T02:01:00.609Z,14.7
2023-08-27T02:02:00.527Z,14.3
2023-08-27T02:03:00.746Z,14.3
2023-08-27T02:04:00.508Z,14.3
2023-08-27T02:05:00.500Z,14.3
2023-08-27T02:06:00.508Z,14.3
2023-08-27T02:07:00.468Z,14.2
2023-08-27T02:08:00.480Z,14.2
2023-08-27T02:09:00.487Z,14.2
2023-08-27T02:10:00.480Z,14.2
2023-08-27T02:11:00.489Z,14.2
2023-08-27T02:12:00.686Z,13.2
2023-08-27T02:13:00.875Z,13.2
2023-08-27T02:14:00.509Z,13.2
2023-08-27T02:15:00.809Z,13.2
2023-08-27T02:16:00.496Z,13.2
2023-08-27T02:17:00.486Z,13.1
2023-08-27T02:18:00.587Z,13.1
2023-08-27T02:19:00.630Z,13.1
2023-08-27T02:20:00.539Z,13.1
2023-08-27T02:21:01.329Z,13.1
2023-08-27T02:22:00.466Z,14.0
2023-08-27T02:23:00.806Z,14.0
2023-08-27T02:24:00.622Z,14.0
2023-08-27T02:25:00.628Z,14.0
2023-08-27T02:26:00.493Z,14.0
2023-08-27T02:27:00.495Z,14.2
2023-08-27T02:28:00.476Z,14.2
2023-08-27T02:29:00.506Z,14.2
2023-08-27T02:30:00.555Z,14.2
2023-08-27T02:31:00.544Z,14.2
2023-08-27T02:32:00.482Z,15.8
2023-08-27T02:33:00.801Z,15.8
2023-08-27T02:34:00.509Z,15.8
2023-08-27T02:35:00.480Z,15.8
2023-08-27T02:36:00.622Z,15.8
2023-08-27T02:37:00.505Z,15.5
2023-08-27T02:38:00.512Z,15.5
2023-08-27T02:39:00.475Z,15.5
2023-08-27T02:40:00.498Z,15.5
2023-08-27T02:41:00.521Z,15.5
2023-08-27T02:42:00.724Z,12.5
2023-08-27T02:43:01.747Z,12.5
2023-08-27T02:44:00.507Z,12.5
2023-08-27T02:45:00.482Z,12.5
2023-08-27T02:46:00.494Z,12.5
2023-08-27T02:47:00.496Z,10.1
2023-08-27T02:48:00.553Z,10.1
2023-08-27T02:49:00.760Z,10.1
2023-08-27T02:50:00.487Z,10.1
2023-08-27T02:51:00.489Z,10.1
2023-08-27T02:52:00.501Z,8.2
2023-08-27T02:53:00.863Z,8.2
2023-08-27T02:54:00.500Z,8.2
2023-08-27T02:55:00.500Z,8.2
2023-08-27T02:56:00.470Z,8.2
2023-08-27T02:57:00.474Z,8.4
2023-08-27T02:58:01.159Z,8.4
2023-08-27T02:59:00.496Z,8.4
2023-08-27T03:00:00.603Z,8.4
2023-08-27T03:01:00.653Z,8.4
2023-08-27T03:02:00.542Z,8.2
2023-08-27T03:03:00.731Z,8.2
2023-08-27T03:04:00.473Z,8.2
2023-08-27T03:05:02.706Z,8.2
2023-08-27T03:06:00.544Z,8.2
2023-08-27T03:07:00.481Z,8.3
2023-08-27T03:08:00.470Z,8.3
2023-08-27T03:09:00.479Z,8.3
2023-08-27T03:10:00.615Z,8.3
2023-08-27T03:11:00.772Z,8.3
2023-08-27T03:12:00.478Z,8.2
2023-08-27T03:13:00.763Z,8.2
2023-08-27T03:14:00.564Z,8.2
2023-08-27T03:15:00.634Z,8.2
2023-08-27T03:16:00.542Z,8.2
2023-08-27T03:17:00.525Z,8.1
2023-08-27T03:18:00.533Z,8.1
2023-08-27T03:19:00.477Z,8.1
2023-08-27T03:20:00.481Z,8.1
2023-08-27T03:21:00.490Z,8.1
2023-08-27T03:22:00.516Z,7.9
2023-08-27T03:23:00.956Z,7.9
2023-08-27T03:24:00.497Z,7.9
2023-08-27T03:25:00.497Z,7.9
2023-08-27T03:26:00.476Z,7.9
2023-08-27T03:27:00.488Z,7.7
2023-08-27T03:28:00.485Z,7.7
2023-08-27T03:29:00.502Z,7.7
2023-08-27T03:30:01.040Z,7.7
2023-08-27T03:31:02.167Z,7.7
2023-08-27T03:32:00.590Z,8.8
2023-08-27T03:33:00.781Z,8.8
2023-08-27T03:34:00.489Z,8.8
2023-08-27T03:35:00.524Z,8.8
2023-08-27T03:36:00.694Z,8.8
2023-08-27T03:37:00.488Z,7.5
2023-08-27T03:38:00.515Z,7.5
2023-08-27T03:39:00.498Z,7.5
2023-08-27T03:40:00.812Z,7.5
2023-08-27T03:41:00.520Z,7.5
2023-08-27T03:42:00.526Z,8.1
2023-08-27T03:43:00.909Z,8.1
2023-08-27T03:44:00.495Z,8.1
2023-08-27T03:45:00.627Z,8.1
2023-08-27T03:46:00.541Z,8.1
2023-08-27T03:47:00.487Z,7.8
2023-08-27T03:48:00.549Z,7.8
2023-08-27T03:49:00.955Z,7.8
2023-08-27T03:50:00.497Z,7.8
2023-08-27T03:51:00.481Z,7.8
2023-08-27T03:52:00.537Z,7.8
2023-08-27T03:53:00.740Z,7.8
2023-08-27T03:54:00.685Z,7.8
2023-08-27T03:55:01.818Z,7.8
2023-08-27T03:56:02.659Z,7.8
2023-08-27T03:57:00.485Z,7.8
2023-08-27T03:58:00.511Z,7.8
2023-08-27T03:59:00.483Z,7.8
2023-08-27T04:00:00.623Z,7.8
2023-08-27T04:01:00.657Z,7.8
2023-08-27T04:02:00.512Z,8.1
2023-08-27T04:03:01.873Z,8.1
2023-08-27T04:04:00.538Z,8.1
2023-08-27T04:05:03.488Z,8.1
2023-08-27T04:06:00.516Z,8.1
2023-08-27T04:07:01.139Z,8.4
2023-08-27T04:08:00.511Z,8.4
2023-08-27T04:09:00.513Z,8.4
2023-08-27T04:10:00.563Z,8.4
2023-08-27T04:11:01.397Z,8.4
2023-08-27T04:12:00.511Z,8.4
2023-08-27T04:13:00.768Z,8.4
2023-08-27T04:14:00.786Z,8.4
2023-08-27T04:15:00.536Z,8.4
2023-08-27T04:16:06.064Z,8.4
2023-08-27T04:17:00.631Z,8.9
2023-08-27T04:18:00.530Z,8.9
2023-08-27T04:19:00.570Z,8.9
2023-08-27T04:20:00.498Z,8.9
2023-08-27T04:21:01.538Z,8.9
2023-08-27T04:22:00.540Z,9.3
2023-08-27T04:23:00.786Z,9.3
2023-08-27T04:24:00.499Z,9.3
2023-08-27T04:25:00.525Z,9.3
2023-08-27T04:26:00.627Z,9.3
2023-08-27T04:27:00.557Z,8.7
2023-08-27T04:28:00.493Z,8.7
2023-08-27T04:29:00.502Z,8.7
2023-08-27T04:30:00.825Z,8.7
2023-08-27T04:31:00.524Z,8.7
2023-08-27T04:32:00.478Z,9.3
2023-08-27T04:33:00.919Z,9.3
2023-08-27T04:34:00.475Z,9.3
2023-08-27T04:35:00.575Z,9.3
2023-08-27T04:36:00.485Z,9.3
2023-08-27T04:37:00.507Z,9.9
2023-08-27T04:38:00.489Z,9.9
2023-08-27T04:39:00.520Z,9.9
2023-08-27T04:40:00.477Z,9.9
2023-08-27T04:41:00.736Z,9.9
2023-08-27T04:42:00.496Z,8.8
2023-08-27T04:43:00.971Z,8.8
2023-08-27T04:44:00.480Z,8.8
2023-08-27T04:45:00.576Z,8.8
2023-08-27T04:46:00.563Z,8.8
2023-08-27T04:47:00.485Z,9.4
2023-08-27T04:48:00.908Z,9.4
2023-08-27T04:49:00.501Z,9.4
2023-08-27T04:50:00.577Z,9.4
2023-08-27T04:51:00.486Z,9.4
2023-08-27T04:52:00.475Z,9.4
2023-08-27T04:53:00.501Z,9.4
2023-08-27T04:54:00.983Z,9.4
2023-08-27T04:55:00.940Z,9.4
2023-08-27T04:56:00.553Z,9.4
2023-08-27T04:57:00.485Z,10.2
2023-08-27T04:58:00.925Z,10.2
2023-08-27T04:59:00.496Z,10.2
2023-08-27T05:00:03.972Z,10.2
2023-08-27T05:01:00.533Z,10.2
2023-08-27T05:02:00.518Z,9.5
2023-08-27T05:03:00.574Z,9.5
2023-08-27T05:04:00.481Z,9.5
2023-08-27T05:05:00.581Z,9.5
2023-08-27T05:06:00.564Z,9.5
2023-08-27T05:07:00.481Z,10.1
2023-08-27T05:08:00.773Z,10.1
2023-08-27T05:09:00.502Z,10.1
2023-08-27T05:10:00.505Z,10.1
2023-08-27T05:11:00.476Z,10.1
2023-08-27T05:12:00.527Z,10.7
2023-08-27T05:13:00.497Z,10.7
2023-08-27T05:14:00.500Z,10.7
2023-08-27T05:15:00.703Z,10.7
2023-08-27T05:16:00.544Z,10.7
2023-08-27T05:17:00.482Z,10.0
2023-08-27T05:18:03.207Z,10.0
2023-08-27T05:19:00.472Z,10.0
2023-08-27T05:20:00.566Z,10.0
2023-08-27T05:21:00.476Z,10.0
2023-08-27T05:22:01.567Z,9.3
2023-08-27T05:23:00.777Z,9.3
2023-08-27T05:24:00.563Z,9.3
2023-08-27T05:25:00.484Z,9.3
2023-08-27T05:26:00.496Z,9.3
2023-08-27T05:27:00.673Z,10.2
2023-08-27T05:28:01.191Z,10.2
2023-08-27T05:29:00.480Z,10.2
2023-08-27T05:30:00.702Z,10.2
2023-08-27T05:31:00.521Z,10.2
2023-08-27T05:32:00.498Z,10.2
2023-08-27T05:33:00.556Z,10.2
2023-08-27T05:34:00.507Z,10.2
2023-08-27T05:35:00.491Z,10.2
2023-08-27T05:36:00.537Z,10.2
2023-08-27T05:37:00.483Z,10.6
2023-08-27T05:38:01.105Z,10.6
2023-08-27T05:39:00.538Z,10.6
2023-08-27T05:40:00.829Z,10.6
2023-08-27T05:41:00.515Z,10.6
2023-08-27T05:42:00.506Z,10.6
2023-08-27T05:43:00.521Z,10.6
2023-08-27T05:44:00.534Z,10.6
2023-08-27T05:45:00.721Z,10.6
2023-08-27T05:46:00.486Z,10.6
2023-08-27T05:47:00.556Z,11.2
2023-08-27T05:48:00.950Z,11.2
2023-08-27T05:49:00.768Z,11.2
2023-08-27T05:50:00.488Z,11.2
2023-08-27T05:51:00.784Z,11.2
2023-08-27T05:52:00.478Z,10.0
2023-08-27T05:53:02.045Z,10.0
2023-08-27T05:54:00.487Z,10.0
2023-08-27T05:55:00.497Z,10.0
2023-08-27T05:56:00.512Z,10.0
2023-08-27T05:57:00.479Z,10.3
2023-08-27T05:58:00.750Z,10.3
2023-08-27T05:59:00.503Z,10.3
2023-08-27T06:00:00.492Z,10.3
2023-08-27T06:01:00.531Z,10.3
2023-08-27T06:02:00.498Z,9.8
2023-08-27T06:03:00.528Z,9.8
2023-08-27T06:04:00.519Z,9.8
2023-08-27T06:05:00.512Z,9.8
2023-08-27T06:06:00.488Z,9.8
2023-08-27T06:07:00.512Z,10.7
2023-08-27T06:08:00.810Z,10.7
2023-08-27T06:09:00.510Z,10.7
2023-08-27T06:10:00.505Z,10.7
2023-08-27T06:11:00.537Z,10.7
2023-08-27T06:12:00.484Z,11.1
2023-08-27T06:13:01.645Z,11.1
2023-08-27T06:14:00.488Z,11.1
2023-08-27T06:15:00.497Z,11.1
2023-08-27T06:16:00.582Z,11.1
2023-08-27T06:17:00.566Z,10.1
2023-08-27T06:18:01.600Z,10.1
2023-08-27T06:19:00.920Z,10.1
2023-08-27T06:20:00.511Z,10.1
2023-08-27T06:21:00.492Z,10.1
2023-08-27T06:22:00.513Z,10.2
2023-08-27T06:23:02.612Z,10.2
2023-08-27T06:24:00.553Z,10.2
2023-08-27T06:25:03.659Z,10.2
2023-08-27T06:26:02.321Z,10.2
2023-08-27T06:27:00.468Z,8.8
2023-08-27T06:28:03.144Z,8.8
2023-08-27T06:29:00.757Z,8.8
2023-08-27T06:30:00.561Z,8.8
2023-08-27T06:31:00.481Z,8.8
2023-08-27T06:32:00.527Z,10.1
2023-08-27T06:33:01.601Z,10.1
2023-08-27T06:34:00.515Z,10.1
2023-08-27T06:35:00.625Z,10.1
2023-08-27T06:36:00.572Z,10.1
2023-08-27T06:37:00.470Z,10.4
2023-08-27T06:38:00.819Z,10.4
2023-08-27T06:39:00.477Z,10.4
2023-08-27T06:40:00.569Z,10.4
2023-08-27T06:41:00.592Z,10.4
2023-08-27T06:42:00.476Z,9.4
2023-08-27T06:43:00.501Z,9.4
2023-08-27T06:44:00.481Z,9.4
2023-08-27T06:45:01.889Z,9.4
2023-08-27T06:46:00.514Z,9.4
2023-08-27T06:47:00.570Z,10.4
2023-08-27T06:48:01.124Z,10.4
2023-08-27T06:49:00.490Z,10.4
2023-08-27T06:50:00.533Z,10.4
2023-08-27T06:51:00.520Z,10.4
2023-08-27T06:52:00.527Z,10.6
2023-08-27T06:53:00.539Z,10.6
2023-08-27T06:54:00.962Z,10.6
2023-08-27T06:55:01.070Z,10.6
2023-08-27T06:56:00.476Z,10.6
2023-08-27T06:57:00.505Z,10.9
2023-08-27T06:58:00.711Z,10.9
2023-08-27T06:59:00.482Z,10.9
2023-08-27T07:00:00.481Z,10.9
2023-08-27T07:01:01.294Z,10.9
2023-08-27T07:02:00.649Z,9.6
2023-08-27T07:03:00.610Z,9.6
2023-08-27T07:04:00.564Z,9.6
2023-08-27T07:05:00.549Z,9.6
2023-08-27T07:06:00.480Z,9.6
2023-08-27T07:07:00.520Z,9.5
2023-08-27T07:08:00.752Z,9.5
2023-08-27T07:09:01.422Z,9.5
2023-08-27T07:10:00.475Z,9.5
2023-08-27T07:11:00.682Z,9.5
2023-08-27T07:12:00.692Z,9.8
2023-08-27T07:13:00.501Z,9.8
2023-08-27T07:14:00.579Z,9.8
2023-08-27T07:15:02.761Z,9.8
2023-08-27T07:16:00.516Z,9.8
2023-08-27T07:17:00.473Z,9.4
2023-08-27T07:18:00.726Z,9.4
2023-08-27T07:19:00.507Z,9.4
2023-08-27T07:20:01.912Z,9.4
2023-08-27T07:21:00.482Z,9.4
2023-08-27T07:22:00.472Z,8.6
2023-08-27T07:23:00.482Z,8.6
2023-08-27T07:24:00.735Z,8.6
2023-08-27T07:25:00.558Z,8.6
2023-08-27T07:26:00.540Z,8.6
2023-08-27T07:27:00.554Z,7.9
2023-08-27T07:28:00.851Z,7.9
2023-08-27T07:29:00.689Z,7.9
2023-08-27T07:30:00.549Z,7.9
2023-08-27T07:31:00.509Z,7.9
2023-08-27T07:32:00.525Z,7.5
2023-08-27T07:33:00.492Z,7.5
2023-08-27T07:34:00.615Z,7.5
2023-08-27T07:35:00.649Z,7.5
2023-08-27T07:36:00.490Z,7.5
2023-08-27T07:37:00.558Z,7.6
2023-08-27T07:38:00.933Z,7.6
2023-08-27T07:39:00.491Z,7.6
2023-08-27T07:40:00.486Z,7.6
2023-08-27T07:41:00.484Z,7.6
2023-08-27T07:42:00.483Z,7.3
2023-08-27T07:43:00.516Z,7.3
2023-08-27T07:44:00.503Z,7.3
2023-08-27T07:45:01.036Z,7.3
2023-08-27T07:46:00.613Z,7.3
2023-08-27T07:47:00.546Z,7.5
2023-08-27T07:48:01.080Z,7.5
2023-08-27T07:49:00.507Z,7.5
2023-08-27T07:50:00.536Z,7.5
2023-08-27T07:51:02.228Z,7.5
2023-08-27T07:52:00.494Z,7.5
2023-08-27T07:53:00.489Z,7.3
2023-08-27T07:54:00.519Z,7.3
2023-08-27T07:55:00.513Z,7.3
2023-08-27T07:56:00.522Z,7.3
2023-08-27T07:57:00.600Z,7.3
2023-08-27T07:58:00.894Z,7.3
2023-08-27T07:59:00.476Z,7.3
2023-08-27T08:00:00.509Z,7.3
2023-08-27T08:01:00.595Z,7.3
2023-08-27T08:02:00.584Z,7.3
2023-08-27T08:03:00.795Z,6.9
2023-08-27T08:04:00.555Z,6.9
2023-08-27T08:05:00.473Z,6.9
2023-08-27T08:06:00.525Z,6.9
2023-08-27T08:07:00.550Z,6.9
2023-08-27T08:08:00.899Z,6.1
2023-08-27T08:09:00.478Z,6.1
2023-08-27T08:10:00.662Z,6.1
2023-08-27T08:11:01.329Z,6.1
2023-08-27T08:12:00.553Z,6.1
2023-08-27T08:13:00.486Z,7.3
2023-08-27T08:14:00.522Z,7.3
2023-08-27T08:15:00.642Z,7.3
2023-08-27T08:16:00.623Z,7.3
2023-08-27T08:17:00.555Z,7.3
2023-08-27T08:18:00.673Z,7.0
2023-08-27T08:19:00.543Z,7.0
2023-08-27T08:20:00.495Z,7.0
2023-08-27T08:21:00.509Z,7.0
2023-08-27T08:22:00.798Z,7.0
2023-08-27T08:23:00.553Z,10.8
2023-08-27T08:24:00.494Z,10.8
2023-08-27T08:25:00.565Z,10.8
2023-08-27T08:26:00.825Z,10.8
2023-08-27T08:27:00.503Z,10.8
2023-08-27T08:28:00.997Z,6.8
2023-08-27T08:29:00.476Z,6.8
2023-08-27T08:30:01.466Z,6.8
2023-08-27T08:31:00.531Z,6.8
2023-08-27T08:32:01.087Z,6.8
2023-08-27T08:33:00.561Z,7.2
2023-08-27T08:34:00.502Z,7.2
2023-08-27T08:35:00.957Z,7.2
2023-08-27T08:36:00.607Z,7.2
2023-08-27T08:37:00.475Z,7.2
2023-08-27T08:38:00.751Z,7.1
2023-08-27T08:39:00.480Z,7.1
2023-08-27T08:40:00.527Z,7.1
2023-08-27T08:41:02.201Z,7.1
2023-08-27T08:42:12.036Z,7.2
2023-08-27T08:43:00.512Z,7.2
2023-08-27T08:44:07.988Z,7.2
2023-08-27T08:45:13.588Z,7.2
2023-08-27T08:46:03.129Z,7.2
2023-08-27T08:47:00.980Z,7.2
2023-08-27T08:48:01.034Z,6.8
2023-08-27T08:49:02.629Z,6.8
2023-08-27T08:50:05.254Z,6.8
2023-08-27T08:51:03.158Z,6.8
2023-08-27T08:52:06.111Z,7.1
2023-08-27T08:53:12.867Z,7.1
2023-08-27T08:54:04.529Z,7.1
2023-08-27T08:55:01.998Z,7.1
2023-08-27T08:56:05.385Z,7.1
2023-08-27T08:57:02.322Z,7.1
2023-08-27T08:58:06.100Z,7.1
2023-08-27T08:59:00.595Z,7.1
2023-08-27T09:00:02.135Z,7.1
2023-08-27T09:01:02.086Z,7.1
2023-08-27T09:02:00.764Z,7.1
2023-08-27T09:03:02.349Z,7.3
2023-08-27T09:04:01.415Z,7.3
2023-08-27T09:05:01.558Z,7.3
2023-08-27T09:06:01.296Z,7.3
2023-08-27T09:07:02.390Z,7.3
2023-08-27T09:08:02.898Z,6.8
2023-08-27T09:09:01.193Z,6.8
2023-08-27T09:10:01.497Z,6.8
2023-08-27T09:11:00.791Z,6.8
2023-08-27T09:12:01.428Z,6.8
2023-08-27T09:13:01.969Z,6.8
2023-08-27T09:14:02.693Z,6.8
2023-08-27T09:15:00.967Z,6.8
2023-08-27T09:16:00.517Z,6.8
2023-08-27T09:17:00.535Z,6.8
2023-08-27T09:18:01.946Z,7.7
2023-08-27T09:19:00.881Z,7.7
2023-08-27T09:20:00.518Z,7.7
2023-08-27T09:21:01.257Z,7.7
2023-08-27T09:22:00.536Z,7.7
2023-08-27T09:23:00.556Z,7.6
2023-08-27T09:24:00.605Z,7.6
2023-08-27T09:25:00.617Z,7.6
2023-08-27T09:26:01.624Z,7.6
2023-08-27T09:27:00.487Z,7.6
2023-08-27T09:28:00.873Z,7.0
2023-08-27T09:29:00.489Z,7.0
2023-08-27T09:30:01.302Z,7.0
2023-08-27T09:31:00.668Z,7.0
2023-08-27T09:32:00.564Z,7.0
2023-08-27T09:33:01.183Z,7.1
2023-08-27T09:34:00.497Z,7.1
2023-08-27T09:35:02.707Z,7.1
2023-08-27T09:36:00.550Z,7.1
2023-08-27T09:37:00.531Z,7.1
2023-08-27T09:38:00.758Z,7.1
2023-08-27T09:39:07.097Z,7.1
2023-08-27T09:40:00.876Z,7.1
2023-08-27T09:41:17.118Z,7.1
2023-08-27T09:42:00.525Z,7.1
2023-08-27T09:43:03.915Z,7.6
2023-08-27T09:44:00.528Z,7.6
2023-08-27T09:45:00.616Z,7.6
2023-08-27T09:46:00.518Z,7.6
2023-08-27T09:47:04.365Z,7.6
2023-08-27T09:48:01.862Z,6.8
2023-08-27T09:49:02.538Z,6.8
2023-08-27T09:50:04.155Z,6.8
2023-08-27T09:51:04.637Z,6.8
2023-08-27T09:52:00.482Z,6.8
2023-08-27T09:53:05.072Z,7.7
2023-08-27T09:54:00.598Z,7.7
2023-08-27T09:55:00.525Z,7.7
2023-08-27T09:56:00.596Z,7.7
2023-08-27T09:57:00.513Z,7.7
2023-08-27T09:58:02.727Z,7.0
2023-08-27T09:59:04.851Z,7.0
2023-08-27T10:00:00.507Z,7.0
2023-08-27T10:01:00.993Z,7.0
2023-08-27T10:02:00.477Z,7.0
2023-08-27T10:03:00.814Z,7.1
2023-08-27T10:04:01.603Z,7.1
2023-08-27T10:05:00.536Z,7.1
2023-08-27T10:06:01.089Z,7.1
2023-08-27T10:07:00.487Z,7.1
2023-08-27T10:08:02.848Z,7.0
2023-08-27T10:09:00.523Z,7.0
2023-08-27T10:10:02.197Z,7.0
2023-08-27T10:11:08.944Z,7.0
2023-08-27T10:12:02.833Z,7.0
2023-08-27T10:13:00.947Z,7.1
2023-08-27T10:14:01.216Z,7.1
2023-08-27T10:15:01.769Z,7.1
2023-08-27T10:16:01.152Z,7.1
2023-08-27T10:17:00.871Z,7.1
2023-08-27T10:18:01.927Z,7.1
2023-08-27T10:19:01.004Z,7.1
2023-08-27T10:20:01.615Z,7.1
2023-08-27T10:21:00.658Z,7.1
2023-08-27T10:22:00.910Z,7.1
2023-08-27T10:23:02.024Z,6.9
2023-08-27T10:24:01.428Z,6.9
2023-08-27T10:25:02.297Z,6.9
2023-08-27T10:26:01.078Z,6.9
2023-08-27T10:27:02.105Z,6.9
2023-08-27T10:28:01.409Z,7.7
2023-08-27T10:29:02.672Z,7.7
2023-08-27T10:30:00.562Z,7.7
2023-08-27T10:31:00.972Z,7.7
2023-08-27T10:32:00.547Z,7.7
2023-08-27T10:33:01.870Z,7.2
2023-08-27T10:34:00.553Z,7.2
2023-08-27T10:35:02.406Z,7.2
2023-08-27T10:36:11.125Z,7.2
2023-08-27T10:37:05.847Z,7.2
2023-08-27T10:38:03.475Z,7.2
2023-08-27T10:39:03.252Z,7.2
2023-08-27T10:40:01.468Z,7.2
2023-08-27T10:41:00.884Z,7.2
2023-08-27T10:42:00.644Z,7.2
2023-08-27T10:43:08.888Z,7.3
2023-08-27T10:44:01.234Z,7.3
2023-08-27T10:45:18.128Z,7.3
2023-08-27T10:46:30.770Z,7.3
2023-08-27T10:47:09.068Z,7.3
2023-08-27T10:48:36.084Z,7.3
2023-08-27T10:49:00.608Z,7.3
2023-08-27T10:50:00.498Z,7.3
2023-08-27T10:51:10.105Z,7.3
2023-08-27T10:52:12.030Z,7.6
2023-08-27T10:53:03.320Z,7.6
2023-08-27T10:54:01.262Z,7.6
2023-08-27T10:55:01.177Z,7.6
2023-08-27T10:56:00.482Z,7.6
2023-08-27T10:57:14.976Z,7.6
2023-08-27T10:58:17.200Z,7.6
2023-08-27T10:59:09.874Z,7.6
2023-08-27T11:00:09.403Z,7.6
2023-08-27T11:01:00.496Z,7.6
2023-08-27T11:02:02.485Z,7.6
2023-08-27T11:03:15.339Z,7.3
2023-08-27T11:04:02.354Z,7.3
2023-08-27T11:05:05.956Z,7.3
2023-08-27T11:06:15.891Z,7.3
2023-08-27T11:07:08.196Z,7.3
2023-08-27T11:08:00.864Z,7.4
2023-08-27T11:09:03.379Z,7.4
2023-08-27T11:10:02.838Z,7.4
2023-08-27T11:11:10.917Z,7.4
2023-08-27T11:12:03.276Z,7.4
2023-08-27T11:13:00.522Z,8.0
2023-08-27T11:14:14.307Z,8.0
2023-08-27T11:15:16.187Z,8.0
2023-08-27T11:16:00.525Z,8.0
2023-08-27T11:17:03.137Z,8.0
2023-08-27T11:18:20.610Z,7.8
2023-08-27T11:19:00.486Z,7.8
2023-08-27T11:20:20.016Z,7.8
2023-08-27T11:21:18.109Z,7.8
2023-08-27T11:22:18.122Z,7.1
2023-08-27T11:23:02.000Z,7.1
2023-08-27T11:24:13.016Z,7.1
2023-08-27T11:25:01.346Z,7.1
2023-08-27T11:26:01.180Z,7.1
2023-08-27T11:27:00.881Z,7.1
2023-08-27T11:28:01.280Z,8.4
2023-08-27T11:29:01.206Z,8.4
2023-08-27T11:30:00.706Z,8.4
2023-08-27T11:31:02.124Z,8.4
2023-08-27T11:32:00.513Z,8.4
2023-08-27T11:33:00.512Z,8.2
2023-08-27T11:34:01.463Z,8.2
2023-08-27T11:35:00.492Z,8.2
2023-08-27T11:36:00.484Z,8.2
2023-08-27T11:37:00.881Z,8.2
2023-08-27T11:38:00.833Z,8.0
2023-08-27T11:39:00.957Z,8.0
2023-08-27T11:40:00.596Z,8.0
2023-08-27T11:41:00.476Z,8.0
2023-08-27T11:42:01.591Z,8.0
2023-08-27T11:43:00.495Z,8.3
2023-08-27T11:44:00.893Z,8.3
2023-08-27T11:45:00.523Z,8.3
2023-08-27T11:46:00.524Z,8.3
2023-08-27T11:47:02.722Z,8.3
2023-08-27T11:48:08.787Z,8.2
2023-08-27T11:49:00.674Z,8.2
2023-08-27T11:50:07.056Z,8.2
2023-08-27T11:51:00.601Z,8.2
2023-08-27T11:52:01.141Z,8.2
2023-08-27T11:53:00.940Z,7.8
2023-08-27T11:54:09.358Z,7.8
2023-08-27T11:55:00.548Z,7.8
2023-08-27T11:56:00.708Z,7.8
2023-08-27T11:57:00.950Z,7.8
2023-08-27T11:58:00.749Z,8.1
2023-08-27T11:59:00.512Z,8.1
2023-08-27T12:00:08.750Z,8.1
2023-08-27T12:01:00.531Z,8.1
2023-08-27T12:02:02.133Z,8.1
2023-08-27T12:03:00.860Z,8.4
2023-08-27T12:04:01.480Z,8.4
2023-08-27T12:05:01.007Z,8.4
2023-08-27T12:06:00.490Z,8.4
2023-08-27T12:07:02.814Z,8.4
2023-08-27T12:08:06.450Z,8.0
2023-08-27T12:09:00.479Z,8.0
2023-08-27T12:10:00.553Z,8.0
2023-08-27T12:11:01.645Z,8.0
2023-08-27T12:12:03.568Z,8.0
2023-08-27T12:13:00.501Z,7.9
2023-08-27T12:14:01.174Z,7.9
2023-08-27T12:15:00.487Z,7.9
2023-08-27T12:16:00.477Z,7.9
2023-08-27T12:17:03.677Z,7.9
2023-08-27T12:18:00.838Z,7.9
2023-08-27T12:19:03.418Z,7.9
2023-08-27T12:20:01.913Z,7.9
2023-08-27T12:21:04.669Z,7.9
2023-08-27T12:22:00.489Z,7.9
2023-08-27T12:23:16.077Z,8.3
2023-08-27T12:24:00.495Z,8.3
2023-08-27T12:25:00.507Z,8.3
2023-08-27T12:26:02.023Z,8.3
2023-08-27T12:27:02.934Z,8.3
2023-08-27T12:28:00.765Z,8.2
2023-08-27T12:29:00.526Z,8.2
2023-08-27T12:30:00.664Z,8.2
2023-08-27T12:31:00.583Z,8.2
2023-08-27T12:32:17.657Z,8.0
2023-08-27T12:33:00.502Z,8.0
2023-08-27T12:34:04.273Z,8.0
2023-08-27T12:35:01.197Z,8.0
2023-08-27T12:36:04.692Z,8.0
2023-08-27T12:37:00.527Z,8.0
2023-08-27T12:38:00.768Z,8.6
2023-08-27T12:39:00.508Z,8.6
2023-08-27T12:40:00.553Z,8.6
2023-08-27T12:41:01.105Z,8.6
2023-08-27T12:42:00.780Z,8.6
2023-08-27T12:43:00.485Z,7.8
2023-08-27T12:44:00.484Z,7.8
2023-08-27T12:45:00.492Z,7.8
2023-08-27T12:46:00.527Z,7.8
2023-08-27T12:47:01.449Z,7.8
2023-08-27T12:48:04.490Z,7.9
2023-08-27T12:49:00.468Z,7.9
2023-08-27T12:50:00.500Z,7.9
2023-08-27T12:51:01.214Z,7.9
2023-08-27T12:52:00.841Z,7.9
2023-08-27T12:53:00.485Z,7.9
2023-08-27T12:54:00.501Z,7.9
2023-08-27T12:55:00.480Z,7.9
2023-08-27T12:56:00.489Z,7.9
2023-08-27T12:57:00.720Z,7.9
2023-08-27T12:58:00.809Z,8.0
2023-08-27T12:59:00.492Z,8.0
2023-08-27T13:00:00.552Z,8.0
2023-08-27T13:01:00.475Z,8.0
2023-08-27T13:02:00.562Z,8.0
2023-08-27T13:03:00.558Z,8.1
2023-08-27T13:04:00.563Z,8.1
2023-08-27T13:05:00.831Z,8.1
2023-08-27T13:06:00.487Z,8.1
2023-08-27T13:07:00.487Z,8.1
2023-08-27T13:08:00.719Z,8.2
2023-08-27T13:09:00.657Z,8.2
2023-08-27T13:10:00.518Z,8.2
2023-08-27T13:11:00.505Z,8.2
2023-08-27T13:12:00.525Z,8.2
2023-08-27T13:13:00.484Z,8.3
2023-08-27T13:14:00.583Z,8.3
2023-08-27T13:15:00.740Z,8.3
2023-08-27T13:16:00.675Z,8.3
2023-08-27T13:17:00.496Z,8.3
2023-08-27T13:18:00.728Z,8.0
2023-08-27T13:19:00.478Z,8.0
2023-08-27T13:20:00.496Z,8.0
2023-08-27T13:21:00.560Z,8.0
2023-08-27T13:22:00.486Z,8.0
2023-08-27T13:23:00.488Z,7.7
2023-08-27T13:24:00.546Z,7.7
2023-08-27T13:25:00.523Z,7.7
2023-08-27T13:26:00.605Z,7.7
2023-08-27T13:27:00.497Z,7.7
2023-08-27T13:28:00.830Z,8.7
2023-08-27T13:29:00.616Z,8.7
2023-08-27T13:30:00.494Z,8.7
2023-08-27T13:31:00.487Z,8.7
2023-08-27T13:32:00.578Z,8.7
2023-08-27T13:33:00.512Z,7.9
2023-08-27T13:34:00.545Z,7.9
2023-08-27T13:35:00.496Z,7.9
2023-08-27T13:36:00.624Z,7.9
2023-08-27T13:37:00.741Z,7.9